Time;durP1;ratioP1;P1;durP2;ratioP2;P2;SDS_P1;SDS_P2;PMS_P1;PMS_P2;Temp;Humidity;BMP_temperature;BMP_pressure;BME280_temperature;BME280_humidity;BME280_pressure;Samples;Min_cycle;Max_cycle;Signal;HPM_P1;HPM_P2
2023/02/21 02:14:09;;;;;;;1.8;1.8;;;;;;;8.5;100.0;101810;;;;
2023/02/21 02:15:10;;;;;;;1.8;1.8;;;;;;;8.5;100.0;101810;;;;
2023/02/21 02:16:01;;;;;;;1.8;1.8;;;;;;;8.5;100.0;101810;;;;
2023/02/21 02:17:10;;;;;;;1.8;1.8;;;;;;;8.5;100.0;101810;;;;
2023/02/21 02:18:08;;;;;;;1.8;1.8;;;;;;;8.5;100.0;101810;;;;
2023/02/21 02:19:10;;;;;;;1.8;1.8;;;;;;;8.6;100.0;101810;;;;
2023/02/21 02:20:10;;;;;;;2.4;2.3;;;;;;;8.6;100.0;101810;;;;
2023/02/21 02:21:10;;;;;;;2.4;2.3;;;;;;;8.5;100.0;101810;;;;
2023/02/21 02:22:00;;;;;;;2.4;2.3;;;;;;;8.5;100.0;101810;;;;
2023/02/21 02:23:07;;;;;;;2.4;2.3;;;;;;;8.5;100.0;101810;;;;
2023/02/21 02:24:10;;;;;;;2.4;2.3;;;;;;;8.5;100.0;101810;;;;
2023/02/21 02:25:10;;;;;;;2.4;2.3;;;;;;;8.4;100.0;101800;;;;
2023/02/21 02:26:10;;;;;;;2.4;2.3;;;;;;;8.4;100.0;101800;;;;
2023/02/21 02:27:10;;;;;;;2.4;2.3;;;;;;;8.4;100.0;101800;;;;
2023/02/21 02:28:07;;;;;;;2.4;2.3;;;;;;;8.4;100.0;101800;;;;
2023/02/21 02:29:10;;;;;;;2.4;2.3;;;;;;;8.5;100.0;101800;;;;
2023/02/21 02:30:10;;;;;;;2.4;2.3;;;;;;;8.5;100.0;101800;;;;
2023/02/21 02:31:10;;;;;;;2.4;2.3;;;;;;;8.5;100.0;101810;;;;
2023/02/21 02:32:10;;;;;;;2.4;2.3;;;;;;;8.5;100.0;101810;;;;
2023/02/21 02:33:10;;;;;;;2.4;2.3;;;;;;;8.4;100.0;101800;;;;
2023/02/21 02:34:02;;;;;;;2.4;2.3;;;;;;;8.4;100.0;101800;;;;
2023/02/21 02:35:08;;;;;;;2.4;2.3;;;;;;;8.4;100.0;101800;;;;
2023/02/21 02:36:05;;;;;;;2.4;2.3;;;;;;;8.4;100.0;101800;;;;
2023/02/21 02:37:08;;;;;;;2.4;2.3;;;;;;;8.5;100.0;101810;;;;
2023/02/21 02:38:07;;;;;;;2.4;2.3;;;;;;;8.5;100.0;101810;;;;
2023/02/21 02:39:09;;;;;;;2.4;2.3;;;;;;;8.5;100.0;101800;;;;
2023/02/21 02:40:10;;;;;;;1.8;1.7;;;;;;;8.5;100.0;101800;;;;
2023/02/21 02:41:08;;;;;;;1.8;1.7;;;;;;;8.4;100.0;101800;;;;
2023/02/21 02:42:10;;;;;;;1.8;1.7;;;;;;;8.4;100.0;101800;;;;
2023/02/21 02:43:07;;;;;;;1.8;1.7;;;;;;;8.4;100.0;101800;;;;
2023/02/21 02:44:05;;;;;;;1.8;1.7;;;;;;;8.4;100.0;101800;;;;
2023/02/21 02:45:04;;;;;;;1.8;1.7;;;;;;;8.6;100.0;101800;;;;
2023/02/21 02:46:05;;;;;;;1.8;1.7;;;;;;;8.6;100.0;101800;;;;
2023/02/21 02:47:02;;;;;;;1.8;1.7;;;;;;;8.4;100.0;101800;;;;
2023/02/21 02:48:05;;;;;;;1.8;1.7;;;;;;;8.4;100.0;101800;;;;
2023/02/21 02:49:05;;;;;;;1.8;1.7;;;;;;;8.4;100.0;101800;;;;
2023/02/21 02:50:00;;;;;;;1.8;1.7;;;;;;;8.4;100.0;101800;;;;
2023/02/21 02:51:02;;;;;;;1.8;1.7;;;;;;;8.5;100.0;101800;;;;
2023/02/21 02:52:02;;;;;;;1.8;1.7;;;;;;;8.5;100.0;101800;;;;
2023/02/21 02:53:01;;;;;;;1.8;1.7;;;;;;;8.5;100.0;101800;;;;
2023/02/21 02:54:00;;;;;;;1.8;1.7;;;;;;;8.5;100.0;101800;;;;
2023/02/21 02:55:02;;;;;;;1.8;1.7;;;;;;;8.5;100.0;101800;;;;
2023/02/21 02:56:02;;;;;;;1.8;1.7;;;;;;;8.5;100.0;101800;;;;
2023/02/21 02:57:02;;;;;;;1.8;1.7;;;;;;;8.5;100.0;101790;;;;
2023/02/21 02:58:01;;;;;;;1.8;1.7;;;;;;;8.5;100.0;101790;;;;
2023/02/21 02:59:04;;;;;;;1.8;1.7;;;;;;;8.5;100.0;101790;;;;
2023/02/21 03:00:00;;;;;;;4.0;2.1;;;;;;;8.5;100.0;101790;;;;
2023/02/21 03:01:10;;;;;;;4.0;2.1;;;;;;;8.5;100.0;101790;;;;
2023/02/21 03:02:10;;;;;;;4.0;2.1;;;;;;;8.5;100.0;101790;;;;
2023/02/21 03:03:02;;;;;;;4.0;2.1;;;;;;;8.4;100.0;101790;;;;
2023/02/21 03:04:10;;;;;;;4.0;2.1;;;;;;;8.4;100.0;101790;;;;
2023/02/21 03:05:00;;;;;;;4.0;2.1;;;;;;;8.4;100.0;101790;;;;
2023/02/21 03:06:10;;;;;;;4.0;2.1;;;;;;;8.4;100.0;101790;;;;
2023/02/21 03:07:10;;;;;;;4.0;2.1;;;;;;;8.5;100.0;101790;;;;
2023/02/21 03:08:10;;;;;;;4.0;2.1;;;;;;;8.5;100.0;101790;;;;
2023/02/21 03:09:00;;;;;;;4.0;2.1;;;;;;;8.4;100.0;101790;;;;
2023/02/21 03:10:01;;;;;;;4.0;2.1;;;;;;;8.4;100.0;101790;;;;
2023/02/21 03:11:03;;;;;;;4.0;2.1;;;;;;;8.4;100.0;101790;;;;
2023/02/21 03:12:04;;;;;;;4.0;2.1;;;;;;;8.4;100.0;101790;;;;
2023/02/21 03:13:02;;;;;;;4.0;2.1;;;;;;;8.5;100.0;101790;;;;
2023/02/21 03:14:07;;;;;;;4.0;2.1;;;;;;;8.5;100.0;101790;;;;
2023/02/21 03:15:06;;;;;;;4.0;2.1;;;;;;;8.4;100.0;101790;;;;
2023/02/21 03:16:08;;;;;;;4.0;2.1;;;;;;;8.4;100.0;101790;;;;
2023/02/21 03:17:03;;;;;;;4.0;2.1;;;;;;;8.4;100.0;101790;;;;
2023/02/21 03:18:10;;;;;;;4.0;2.1;;;;;;;8.4;100.0;101790;;;;
2023/02/21 03:19:03;;;;;;;4.0;2.1;;;;;;;8.5;100.0;101790;;;;
2023/02/21 03:20:01;;;;;;;1.9;1.9;;;;;;;8.5;100.0;101790;;;;
2023/02/21 03:21:04;;;;;;;1.9;1.9;;;;;;;8.4;100.0;101790;;;;
2023/02/21 03:22:04;;;;;;;1.9;1.9;;;;;;;8.4;100.0;101790;;;;
2023/02/21 03:23:01;;;;;;;1.9;1.9;;;;;;;8.3;100.0;101800;;;;
2023/02/21 03:24:01;;;;;;;1.9;1.9;;;;;;;8.3;100.0;101800;;;;
2023/02/21 03:25:01;;;;;;;1.9;1.9;;;;;;;8.4;100.0;101800;;;;
2023/02/21 03:26:02;;;;;;;1.9;1.9;;;;;;;8.4;100.0;101800;;;;
2023/02/21 03:27:03;;;;;;;1.9;1.9;;;;;;;8.4;100.0;101800;;;;
2023/02/21 03:28:01;;;;;;;1.9;1.9;;;;;;;8.4;100.0;101800;;;;
2023/02/21 03:29:01;;;;;;;1.9;1.9;;;;;;;8.4;100.0;101800;;;;
2023/02/21 03:30:03;;;;;;;1.9;1.9;;;;;;;8.4;100.0;101800;;;;
2023/02/21 03:31:03;;;;;;;1.9;1.9;;;;;;;8.4;100.0;101800;;;;
2023/02/21 03:33:00;;;;;;;1.9;1.9;;;;;;;8.4;100.0;101800;;;;
2023/02/21 03:34:00;;;;;;;1.9;1.9;;;;;;;8.4;100.0;101800;;;;
2023/02/21 03:35:00;;;;;;;1.9;1.9;;;;;;;8.5;100.0;101800;;;;
2023/02/21 03:36:02;;;;;;;1.9;1.9;;;;;;;8.5;100.0;101800;;;;
2023/02/21 03:37:00;;;;;;;1.9;1.9;;;;;;;8.5;100.0;101800;;;;
2023/02/21 03:38:00;;;;;;;1.9;1.9;;;;;;;8.5;100.0;101800;;;;
2023/02/21 03:39:00;;;;;;;1.9;1.9;;;;;;;8.4;100.0;101790;;;;
2023/02/21 03:40:01;;;;;;;1.6;1.6;;;;;;;8.4;100.0;101790;;;;
2023/02/21 03:41:00;;;;;;;1.6;1.6;;;;;;;8.4;100.0;101790;;;;
2023/02/21 03:42:00;;;;;;;1.6;1.6;;;;;;;8.4;100.0;101790;;;;
2023/02/21 03:43:01;;;;;;;1.6;1.6;;;;;;;8.4;100.0;101790;;;;
2023/02/21 03:44:00;;;;;;;1.6;1.6;;;;;;;8.4;100.0;101790;;;;
2023/02/21 03:45:00;;;;;;;1.6;1.6;;;;;;;8.4;100.0;101790;;;;
2023/02/21 03:46:00;;;;;;;1.6;1.6;;;;;;;8.4;100.0;101790;;;;
2023/02/21 03:47:00;;;;;;;1.6;1.6;;;;;;;8.4;100.0;101790;;;;
2023/02/21 03:48:00;;;;;;;1.6;1.6;;;;;;;8.4;100.0;101790;;;;
2023/02/21 03:49:00;;;;;;;1.6;1.6;;;;;;;8.4;100.0;101790;;;;
2023/02/21 03:50:00;;;;;;;1.6;1.6;;;;;;;8.4;100.0;101790;;;;
2023/02/21 03:51:00;;;;;;;1.6;1.6;;;;;;;8.5;100.0;101800;;;;
2023/02/21 03:52:00;;;;;;;1.6;1.6;;;;;;;8.5;100.0;101800;;;;
2023/02/21 03:53:00;;;;;;;1.6;1.6;;;;;;;8.6;100.0;101790;;;;
2023/02/21 03:54:00;;;;;;;1.6;1.6;;;;;;;8.6;100.0;101790;;;;
2023/02/21 03:55:00;;;;;;;1.6;1.6;;;;;;;8.5;100.0;101800;;;;
2023/02/21 03:56:00;;;;;;;1.6;1.6;;;;;;;8.5;100.0;101800;;;;
2023/02/21 03:57:00;;;;;;;1.6;1.6;;;;;;;8.4;100.0;101800;;;;
2023/02/21 03:58:00;;;;;;;1.6;1.6;;;;;;;8.4;100.0;101800;;;;
2023/02/21 03:59:00;;;;;;;1.6;1.6;;;;;;;8.4;100.0;101800;;;;
2023/02/21 04:00:00;;;;;;;1.2;1.2;;;;;;;8.4;100.0;101800;;;;
2023/02/21 04:01:00;;;;;;;1.2;1.2;;;;;;;8.5;100.0;101800;;;;
2023/02/21 04:02:00;;;;;;;1.2;1.2;;;;;;;8.5;100.0;101800;;;;
2023/02/21 04:03:00;;;;;;;1.2;1.2;;;;;;;8.5;100.0;101800;;;;
2023/02/21 04:04:00;;;;;;;1.2;1.2;;;;;;;8.5;100.0;101800;;;;
2023/02/21 04:05:00;;;;;;;1.2;1.2;;;;;;;8.5;100.0;101800;;;;
2023/02/21 04:06:02;;;;;;;1.2;1.2;;;;;;;8.5;100.0;101800;;;;
2023/02/21 04:07:00;;;;;;;1.2;1.2;;;;;;;8.5;100.0;101790;;;;
2023/02/21 04:08:00;;;;;;;1.2;1.2;;;;;;;8.5;100.0;101790;;;;
2023/02/21 04:09:00;;;;;;;1.2;1.2;;;;;;;8.4;100.0;101790;;;;
2023/02/21 04:10:00;;;;;;;1.2;1.2;;;;;;;8.4;100.0;101790;;;;
2023/02/21 04:11:00;;;;;;;1.2;1.2;;;;;;;8.4;100.0;101790;;;;
2023/02/21 04:12:00;;;;;;;1.2;1.2;;;;;;;8.4;100.0;101790;;;;
2023/02/21 04:13:00;;;;;;;1.2;1.2;;;;;;;8.4;100.0;101790;;;;
2023/02/21 04:14:00;;;;;;;1.2;1.2;;;;;;;8.4;100.0;101790;;;;
2023/02/21 04:15:00;;;;;;;1.2;1.2;;;;;;;8.5;100.0;101780;;;;
2023/02/21 04:16:00;;;;;;;1.2;1.2;;;;;;;8.5;100.0;101780;;;;
2023/02/21 04:17:00;;;;;;;1.2;1.2;;;;;;;8.4;100.0;101790;;;;
2023/02/21 04:18:00;;;;;;;1.2;1.2;;;;;;;8.4;100.0;101790;;;;
2023/02/21 04:19:00;;;;;;;1.2;1.2;;;;;;;8.4;100.0;101780;;;;
2023/02/21 04:20:00;;;;;;;7.1;1.9;;;;;;;8.4;100.0;101780;;;;
2023/02/21 04:21:00;;;;;;;7.1;1.9;;;;;;;8.4;100.0;101780;;;;
2023/02/21 04:22:00;;;;;;;7.1;1.9;;;;;;;8.4;100.0;101780;;;;
2023/02/21 04:23:03;;;;;;;7.1;1.9;;;;;;;8.5;100.0;101780;;;;
2023/02/21 04:24:00;;;;;;;7.1;1.9;;;;;;;8.5;100.0;101780;;;;
2023/02/21 04:25:01;;;;;;;7.1;1.9;;;;;;;8.5;100.0;101780;;;;
2023/02/21 04:26:00;;;;;;;7.1;1.9;;;;;;;8.5;100.0;101780;;;;
2023/02/21 04:27:01;;;;;;;7.1;1.9;;;;;;;8.5;100.0;101780;;;;
2023/02/21 04:28:00;;;;;;;7.1;1.9;;;;;;;8.5;100.0;101780;;;;
2023/02/21 04:29:01;;;;;;;7.1;1.9;;;;;;;8.5;100.0;101770;;;;
2023/02/21 04:30:00;;;;;;;7.1;1.9;;;;;;;8.5;100.0;101770;;;;
2023/02/21 04:31:00;;;;;;;7.1;1.9;;;;;;;8.5;100.0;101770;;;;
2023/02/21 04:32:01;;;;;;;7.1;1.9;;;;;;;8.5;100.0;101770;;;;
2023/02/21 04:33:02;;;;;;;7.1;1.9;;;;;;;8.5;100.0;101770;;;;
2023/02/21 04:34:10;;;;;;;7.1;1.9;;;;;;;8.5;100.0;101770;;;;
2023/02/21 04:35:00;;;;;;;7.1;1.9;;;;;;;8.4;100.0;101770;;;;
2023/02/21 04:36:00;;;;;;;7.1;1.9;;;;;;;8.4;100.0;101770;;;;
2023/02/21 04:37:00;;;;;;;7.1;1.9;;;;;;;8.5;100.0;101770;;;;
2023/02/21 04:38:00;;;;;;;7.1;1.9;;;;;;;8.5;100.0;101770;;;;
2023/02/21 04:39:00;;;;;;;7.1;1.9;;;;;;;8.4;100.0;101770;;;;
2023/02/21 04:40:00;;;;;;;3.1;3.0;;;;;;;8.4;100.0;101770;;;;
2023/02/21 04:41:00;;;;;;;3.1;3.0;;;;;;;8.5;100.0;101770;;;;
2023/02/21 04:42:00;;;;;;;3.1;3.0;;;;;;;8.5;100.0;101770;;;;
2023/02/21 04:43:00;;;;;;;3.1;3.0;;;;;;;8.5;100.0;101770;;;;
2023/02/21 04:44:00;;;;;;;3.1;3.0;;;;;;;8.5;100.0;101770;;;;
2023/02/21 04:45:01;;;;;;;3.1;3.0;;;;;;;8.5;100.0;101770;;;;
2023/02/21 04:46:00;;;;;;;3.1;3.0;;;;;;;8.5;100.0;101770;;;;
2023/02/21 04:47:00;;;;;;;3.1;3.0;;;;;;;8.4;100.0;101770;;;;
2023/02/21 04:48:00;;;;;;;3.1;3.0;;;;;;;8.4;100.0;101770;;;;
2023/02/21 04:49:00;;;;;;;3.1;3.0;;;;;;;8.4;100.0;101770;;;;
2023/02/21 04:50:00;;;;;;;3.1;3.0;;;;;;;8.4;100.0;101770;;;;
2023/02/21 04:51:10;;;;;;;3.1;3.0;;;;;;;8.4;100.0;101770;;;;
2023/02/21 04:52:00;;;;;;;3.1;3.0;;;;;;;8.4;100.0;101770;;;;
2023/02/21 04:53:00;;;;;;;3.1;3.0;;;;;;;8.4;100.0;101770;;;;
2023/02/21 04:54:01;;;;;;;3.1;3.0;;;;;;;8.4;100.0;101770;;;;
2023/02/21 04:55:00;;;;;;;3.1;3.0;;;;;;;8.5;100.0;101770;;;;
2023/02/21 04:56:00;;;;;;;3.1;3.0;;;;;;;8.5;100.0;101770;;;;
2023/02/21 04:57:00;;;;;;;3.1;3.0;;;;;;;8.5;100.0;101770;;;;
2023/02/21 04:58:00;;;;;;;3.1;3.0;;;;;;;8.5;100.0;101770;;;;
2023/02/21 04:59:00;;;;;;;2.3;2.2;;;;;;;8.4;100.0;101760;;;;
2023/02/21 05:00:00;;;;;;;2.3;2.2;;;;;;;8.4;100.0;101760;;;;
2023/02/21 05:01:00;;;;;;;2.3;2.2;;;;;;;8.4;100.0;101760;;;;
2023/02/21 05:02:04;;;;;;;2.3;2.2;;;;;;;8.4;100.0;101760;;;;
2023/02/21 05:03:00;;;;;;;2.3;2.2;;;;;;;8.4;100.0;101770;;;;
2023/02/21 05:04:00;;;;;;;2.3;2.2;;;;;;;8.4;100.0;101770;;;;
2023/02/21 05:05:00;;;;;;;2.3;2.2;;;;;;;8.4;100.0;101770;;;;
2023/02/21 05:06:00;;;;;;;2.3;2.2;;;;;;;8.4;100.0;101770;;;;
2023/02/21 05:07:00;;;;;;;2.3;2.2;;;;;;;8.4;100.0;101770;;;;
2023/02/21 05:08:00;;;;;;;2.3;2.2;;;;;;;8.4;100.0;101770;;;;
2023/02/21 05:09:00;;;;;;;2.3;2.2;;;;;;;8.3;100.0;101770;;;;
2023/02/21 05:10:00;;;;;;;2.3;2.2;;;;;;;8.3;100.0;101770;;;;
2023/02/21 05:11:00;;;;;;;2.3;2.2;;;;;;;8.3;100.0;101760;;;;
2023/02/21 05:12:00;;;;;;;2.3;2.2;;;;;;;8.3;100.0;101760;;;;
2023/02/21 05:13:00;;;;;;;2.3;2.2;;;;;;;8.5;100.0;101770;;;;
2023/02/21 05:14:00;;;;;;;2.3;2.2;;;;;;;8.5;100.0;101770;;;;
2023/02/21 05:15:00;;;;;;;2.3;2.2;;;;;;;8.5;100.0;101770;;;;
2023/02/21 05:16:00;;;;;;;2.3;2.2;;;;;;;8.5;100.0;101770;;;;
2023/02/21 05:17:00;;;;;;;2.3;2.2;;;;;;;8.4;100.0;101770;;;;
2023/02/21 05:18:00;;;;;;;2.3;2.2;;;;;;;8.4;100.0;101770;;;;
2023/02/21 05:19:01;;;;;;;1.7;1.7;;;;;;;8.4;100.0;101770;;;;
2023/02/21 05:20:00;;;;;;;1.7;1.7;;;;;;;8.4;100.0;101770;;;;
2023/02/21 05:21:02;;;;;;;1.7;1.7;;;;;;;8.5;100.0;101780;;;;
2023/02/21 05:22:01;;;;;;;1.7;1.7;;;;;;;8.5;100.0;101780;;;;
2023/02/21 05:23:10;;;;;;;1.7;1.7;;;;;;;8.5;100.0;101780;;;;
2023/02/21 05:24:00;;;;;;;1.7;1.7;;;;;;;8.5;100.0;101780;;;;
2023/02/21 05:25:00;;;;;;;1.7;1.7;;;;;;;8.4;100.0;101780;;;;
2023/02/21 05:26:01;;;;;;;1.7;1.7;;;;;;;8.4;100.0;101780;;;;
2023/02/21 05:27:00;;;;;;;1.7;1.7;;;;;;;8.4;100.0;101770;;;;
2023/02/21 05:28:00;;;;;;;1.7;1.7;;;;;;;8.4;100.0;101770;;;;
2023/02/21 05:29:01;;;;;;;1.7;1.7;;;;;;;8.4;100.0;101770;;;;
2023/02/21 05:30:00;;;;;;;1.7;1.7;;;;;;;8.4;100.0;101770;;;;
2023/02/21 05:31:01;;;;;;;1.7;1.7;;;;;;;8.4;100.0;101770;;;;
2023/02/21 05:32:00;;;;;;;1.7;1.7;;;;;;;8.4;100.0;101770;;;;
2023/02/21 05:33:00;;;;;;;1.7;1.7;;;;;;;8.4;100.0;101770;;;;
2023/02/21 05:34:00;;;;;;;1.7;1.7;;;;;;;8.4;100.0;101770;;;;
2023/02/21 05:35:00;;;;;;;1.7;1.7;;;;;;;8.3;100.0;101770;;;;
2023/02/21 05:36:00;;;;;;;1.7;1.7;;;;;;;8.3;100.0;101770;;;;
2023/02/21 05:37:00;;;;;;;1.7;1.7;;;;;;;8.4;100.0;101770;;;;
2023/02/21 05:38:00;;;;;;;1.7;1.7;;;;;;;8.4;100.0;101770;;;;
2023/02/21 05:39:00;;;;;;;2.0;1.9;;;;;;;8.4;100.0;101770;;;;
2023/02/21 05:40:00;;;;;;;2.0;1.9;;;;;;;8.4;100.0;101770;;;;
2023/02/21 05:41:00;;;;;;;2.0;1.9;;;;;;;8.4;100.0;101760;;;;
2023/02/21 05:42:00;;;;;;;2.0;1.9;;;;;;;8.4;100.0;101760;;;;
2023/02/21 05:43:00;;;;;;;2.0;1.9;;;;;;;8.4;100.0;101760;;;;
2023/02/21 05:44:00;;;;;;;2.0;1.9;;;;;;;8.4;100.0;101760;;;;
2023/02/21 05:45:01;;;;;;;2.0;1.9;;;;;;;8.4;100.0;101760;;;;
2023/02/21 05:46:00;;;;;;;2.0;1.9;;;;;;;8.4;100.0;101760;;;;
2023/02/21 05:47:01;;;;;;;2.0;1.9;;;;;;;8.3;100.0;101760;;;;
2023/02/21 05:48:01;;;;;;;2.0;1.9;;;;;;;8.3;100.0;101760;;;;
2023/02/21 05:49:01;;;;;;;2.0;1.9;;;;;;;8.4;100.0;101760;;;;
2023/02/21 05:50:00;;;;;;;2.0;1.9;;;;;;;8.4;100.0;101760;;;;
2023/02/21 05:51:00;;;;;;;2.0;1.9;;;;;;;8.4;100.0;101770;;;;
2023/02/21 05:52:00;;;;;;;2.0;1.9;;;;;;;8.4;100.0;101770;;;;
2023/02/21 05:53:00;;;;;;;2.0;1.9;;;;;;;8.4;100.0;101770;;;;
2023/02/21 05:54:00;;;;;;;2.0;1.9;;;;;;;8.4;100.0;101770;;;;
2023/02/21 05:55:00;;;;;;;2.0;1.9;;;;;;;8.4;100.0;101770;;;;
2023/02/21 05:56:00;;;;;;;2.0;1.9;;;;;;;8.4;100.0;101770;;;;
2023/02/21 05:57:00;;;;;;;2.0;1.9;;;;;;;8.4;100.0;101780;;;;
2023/02/21 05:58:00;;;;;;;2.0;1.9;;;;;;;8.4;100.0;101780;;;;
2023/02/21 05:59:00;;;;;;;1.3;1.3;;;;;;;8.4;100.0;101770;;;;
2023/02/21 06:00:00;;;;;;;1.3;1.3;;;;;;;8.4;100.0;101770;;;;
2023/02/21 06:01:00;;;;;;;1.3;1.3;;;;;;;8.4;100.0;101770;;;;
2023/02/21 06:02:00;;;;;;;1.3;1.3;;;;;;;8.4;100.0;101770;;;;
2023/02/21 06:03:03;;;;;;;1.3;1.3;;;;;;;8.4;100.0;101780;;;;
2023/02/21 06:04:00;;;;;;;1.3;1.3;;;;;;;8.4;100.0;101780;;;;
2023/02/21 06:05:00;;;;;;;1.3;1.3;;;;;;;8.4;100.0;101780;;;;
2023/02/21 06:06:01;;;;;;;1.3;1.3;;;;;;;8.4;100.0;101780;;;;
2023/02/21 06:07:00;;;;;;;1.3;1.3;;;;;;;8.4;100.0;101780;;;;
2023/02/21 06:08:00;;;;;;;1.3;1.3;;;;;;;8.4;100.0;101780;;;;
2023/02/21 06:09:00;;;;;;;1.3;1.3;;;;;;;8.4;100.0;101780;;;;
2023/02/21 06:10:00;;;;;;;1.3;1.3;;;;;;;8.4;100.0;101780;;;;
2023/02/21 06:11:00;;;;;;;1.3;1.3;;;;;;;8.3;100.0;101780;;;;
2023/02/21 06:12:00;;;;;;;1.3;1.3;;;;;;;8.3;100.0;101780;;;;
2023/02/21 06:13:00;;;;;;;1.3;1.3;;;;;;;8.3;100.0;101780;;;;
2023/02/21 06:14:02;;;;;;;1.3;1.3;;;;;;;8.3;100.0;101780;;;;
2023/02/21 06:15:00;;;;;;;1.3;1.3;;;;;;;8.4;100.0;101780;;;;
2023/02/21 06:16:00;;;;;;;1.3;1.3;;;;;;;8.4;100.0;101780;;;;
2023/02/21 06:17:01;;;;;;;1.3;1.3;;;;;;;8.3;100.0;101770;;;;
2023/02/21 06:18:00;;;;;;;1.3;1.3;;;;;;;8.3;100.0;101770;;;;
2023/02/21 06:19:01;;;;;;;1.8;1.8;;;;;;;8.3;100.0;101780;;;;
2023/02/21 06:20:00;;;;;;;1.8;1.8;;;;;;;8.3;100.0;101780;;;;
2023/02/21 06:21:00;;;;;;;1.8;1.8;;;;;;;8.3;100.0;101780;;;;
2023/02/21 06:22:00;;;;;;;1.8;1.8;;;;;;;8.3;100.0;101780;;;;
2023/02/21 06:23:00;;;;;;;1.8;1.8;;;;;;;8.3;100.0;101780;;;;
2023/02/21 06:24:00;;;;;;;1.8;1.8;;;;;;;8.3;100.0;101780;;;;
2023/02/21 06:25:00;;;;;;;1.8;1.8;;;;;;;8.3;100.0;101780;;;;
2023/02/21 06:26:00;;;;;;;1.8;1.8;;;;;;;8.3;100.0;101780;;;;
2023/02/21 06:27:00;;;;;;;1.8;1.8;;;;;;;8.3;100.0;101780;;;;
2023/02/21 06:28:00;;;;;;;1.8;1.8;;;;;;;8.3;100.0;101780;;;;
2023/02/21 06:29:00;;;;;;;1.8;1.8;;;;;;;8.3;100.0;101770;;;;
2023/02/21 06:30:00;;;;;;;1.8;1.8;;;;;;;8.3;100.0;101770;;;;
2023/02/21 06:31:00;;;;;;;1.8;1.8;;;;;;;8.4;100.0;101780;;;;
2023/02/21 06:32:00;;;;;;;1.8;1.8;;;;;;;8.4;100.0;101780;;;;
2023/02/21 06:33:00;;;;;;;1.8;1.8;;;;;;;8.3;100.0;101780;;;;
2023/02/21 06:34:00;;;;;;;1.8;1.8;;;;;;;8.3;100.0;101780;;;;
2023/02/21 06:35:00;;;;;;;1.8;1.8;;;;;;;8.3;100.0;101780;;;;
2023/02/21 06:36:10;;;;;;;1.8;1.8;;;;;;;8.3;100.0;101780;;;;
2023/02/21 06:37:00;;;;;;;1.8;1.8;;;;;;;8.4;100.0;101790;;;;
2023/02/21 06:38:00;;;;;;;1.8;1.8;;;;;;;8.4;100.0;101790;;;;
2023/02/21 06:39:00;;;;;;;3.5;3.3;;;;;;;8.4;100.0;101780;;;;
2023/02/21 06:40:00;;;;;;;3.5;3.3;;;;;;;8.4;100.0;101780;;;;
2023/02/21 06:41:04;;;;;;;3.5;3.3;;;;;;;8.4;100.0;101790;;;;
2023/02/21 06:42:00;;;;;;;3.5;3.3;;;;;;;8.4;100.0;101790;;;;
2023/02/21 06:43:00;;;;;;;3.5;3.3;;;;;;;8.4;100.0;101780;;;;
2023/02/21 06:44:00;;;;;;;3.5;3.3;;;;;;;8.4;100.0;101780;;;;
2023/02/21 06:45:00;;;;;;;3.5;3.3;;;;;;;8.3;100.0;101780;;;;
2023/02/21 06:46:00;;;;;;;3.5;3.3;;;;;;;8.3;100.0;101780;;;;
2023/02/21 06:47:00;;;;;;;3.5;3.3;;;;;;;8.3;100.0;101780;;;;
2023/02/21 06:48:00;;;;;;;3.5;3.3;;;;;;;8.3;100.0;101780;;;;
2023/02/21 06:49:00;;;;;;;3.5;3.3;;;;;;;8.3;100.0;101790;;;;
2023/02/21 06:50:00;;;;;;;3.5;3.3;;;;;;;8.3;100.0;101790;;;;
2023/02/21 06:51:00;;;;;;;3.5;3.3;;;;;;;8.3;100.0;101790;;;;
2023/02/21 06:52:00;;;;;;;3.5;3.3;;;;;;;8.3;100.0;101790;;;;
2023/02/21 06:53:00;;;;;;;3.5;3.3;;;;;;;8.3;100.0;101790;;;;
2023/02/21 06:54:00;;;;;;;3.5;3.3;;;;;;;8.3;100.0;101790;;;;
2023/02/21 06:55:00;;;;;;;3.5;3.3;;;;;;;8.4;100.0;101790;;;;
2023/02/21 06:56:00;;;;;;;3.5;3.3;;;;;;;8.4;100.0;101790;;;;
2023/02/21 06:57:00;;;;;;;3.5;3.3;;;;;;;8.3;100.0;101790;;;;
2023/02/21 06:58:00;;;;;;;3.5;3.3;;;;;;;8.3;100.0;101790;;;;
2023/02/21 06:59:00;;;;;;;1.8;1.7;;;;;;;8.3;100.0;101800;;;;
2023/02/21 07:00:00;;;;;;;1.8;1.7;;;;;;;8.3;100.0;101800;;;;
2023/02/21 07:01:00;;;;;;;1.8;1.7;;;;;;;8.3;100.0;101800;;;;
2023/02/21 07:02:01;;;;;;;1.8;1.7;;;;;;;8.3;100.0;101800;;;;
2023/02/21 07:03:00;;;;;;;1.8;1.7;;;;;;;8.3;100.0;101800;;;;
2023/02/21 07:04:00;;;;;;;1.8;1.7;;;;;;;8.3;100.0;101800;;;;
2023/02/21 07:05:00;;;;;;;1.8;1.7;;;;;;;8.3;100.0;101790;;;;
2023/02/21 07:06:00;;;;;;;1.8;1.7;;;;;;;8.3;100.0;101790;;;;
2023/02/21 07:07:00;;;;;;;1.8;1.7;;;;;;;8.3;100.0;101790;;;;
2023/02/21 07:08:01;;;;;;;1.8;1.7;;;;;;;8.3;100.0;101790;;;;
2023/02/21 07:09:00;;;;;;;1.8;1.7;;;;;;;8.3;100.0;101800;;;;
2023/02/21 07:10:00;;;;;;;1.8;1.7;;;;;;;8.3;100.0;101800;;;;
2023/02/21 07:11:00;;;;;;;1.8;1.7;;;;;;;8.3;100.0;101790;;;;
2023/02/21 07:12:02;;;;;;;1.8;1.7;;;;;;;8.3;100.0;101790;;;;
2023/02/21 07:13:00;;;;;;;1.8;1.7;;;;;;;8.4;100.0;101790;;;;
2023/02/21 07:14:00;;;;;;;1.8;1.7;;;;;;;8.4;100.0;101790;;;;
2023/02/21 07:15:00;;;;;;;1.8;1.7;;;;;;;8.3;100.0;101790;;;;
2023/02/21 07:16:01;;;;;;;1.8;1.7;;;;;;;8.3;100.0;101790;;;;
2023/02/21 07:17:00;;;;;;;1.8;1.7;;;;;;;8.3;100.0;101800;;;;
2023/02/21 07:18:00;;;;;;;1.8;1.7;;;;;;;8.3;100.0;101800;;;;
2023/02/21 07:19:00;;;;;;;1.4;1.4;;;;;;;8.3;100.0;101800;;;;
2023/02/21 07:20:00;;;;;;;1.4;1.4;;;;;;;8.3;100.0;101800;;;;
2023/02/21 07:21:00;;;;;;;1.4;1.4;;;;;;;8.3;100.0;101800;;;;
2023/02/21 07:22:00;;;;;;;1.4;1.4;;;;;;;8.3;100.0;101800;;;;
2023/02/21 07:23:00;;;;;;;1.4;1.4;;;;;;;8.2;100.0;101790;;;;
2023/02/21 07:24:00;;;;;;;1.4;1.4;;;;;;;8.2;100.0;101790;;;;
2023/02/21 07:25:00;;;;;;;1.4;1.4;;;;;;;8.2;100.0;101790;;;;
2023/02/21 07:26:00;;;;;;;1.4;1.4;;;;;;;8.2;100.0;101790;;;;
2023/02/21 07:27:00;;;;;;;1.4;1.4;;;;;;;8.2;100.0;101780;;;;
2023/02/21 07:28:01;;;;;;;1.4;1.4;;;;;;;8.2;100.0;101780;;;;
2023/02/21 07:29:00;;;;;;;1.4;1.4;;;;;;;8.2;100.0;101790;;;;
2023/02/21 07:30:00;;;;;;;1.4;1.4;;;;;;;8.2;100.0;101790;;;;
2023/02/21 07:31:00;;;;;;;1.4;1.4;;;;;;;8.3;100.0;101790;;;;
2023/02/21 07:32:00;;;;;;;1.4;1.4;;;;;;;8.3;100.0;101790;;;;
2023/02/21 07:33:00;;;;;;;1.4;1.4;;;;;;;8.4;100.0;101790;;;;
2023/02/21 07:34:00;;;;;;;1.4;1.4;;;;;;;8.4;100.0;101790;;;;
2023/02/21 07:35:00;;;;;;;1.4;1.4;;;;;;;8.3;100.0;101800;;;;
2023/02/21 07:36:00;;;;;;;1.4;1.4;;;;;;;8.3;100.0;101800;;;;
2023/02/21 07:37:00;;;;;;;1.4;1.4;;;;;;;8.3;100.0;101800;;;;
2023/02/21 07:38:00;;;;;;;1.4;1.4;;;;;;;8.3;100.0;101800;;;;
2023/02/21 07:39:00;;;;;;;1.2;1.2;;;;;;;8.3;100.0;101800;;;;
2023/02/21 07:40:00;;;;;;;1.2;1.2;;;;;;;8.3;100.0;101800;;;;
2023/02/21 07:41:01;;;;;;;1.2;1.2;;;;;;;8.3;100.0;101790;;;;
2023/02/21 07:42:00;;;;;;;1.2;1.2;;;;;;;8.3;100.0;101790;;;;
2023/02/21 07:43:01;;;;;;;1.2;1.2;;;;;;;8.3;100.0;101790;;;;
2023/02/21 07:44:00;;;;;;;1.2;1.2;;;;;;;8.3;100.0;101790;;;;
2023/02/21 07:45:00;;;;;;;1.2;1.2;;;;;;;8.3;100.0;101790;;;;
2023/02/21 07:46:00;;;;;;;1.2;1.2;;;;;;;8.3;100.0;101790;;;;
2023/02/21 07:47:00;;;;;;;1.2;1.2;;;;;;;8.3;100.0;101800;;;;
2023/02/21 07:48:00;;;;;;;1.2;1.2;;;;;;;8.3;100.0;101800;;;;
2023/02/21 07:49:00;;;;;;;1.2;1.2;;;;;;;8.3;100.0;101800;;;;
2023/02/21 07:50:00;;;;;;;1.2;1.2;;;;;;;8.3;100.0;101800;;;;
2023/02/21 07:51:00;;;;;;;1.2;1.2;;;;;;;8.3;100.0;101800;;;;
2023/02/21 07:52:00;;;;;;;1.2;1.2;;;;;;;8.3;100.0;101800;;;;
2023/02/21 07:53:00;;;;;;;1.2;1.2;;;;;;;8.4;100.0;101800;;;;
2023/02/21 07:54:00;;;;;;;1.2;1.2;;;;;;;8.4;100.0;101800;;;;
2023/02/21 07:55:00;;;;;;;1.2;1.2;;;;;;;8.4;100.0;101800;;;;
2023/02/21 07:56:00;;;;;;;1.2;1.2;;;;;;;8.4;100.0;101800;;;;
2023/02/21 07:57:00;;;;;;;1.2;1.2;;;;;;;8.4;100.0;101800;;;;
2023/02/21 07:58:00;;;;;;;1.2;1.2;;;;;;;8.4;100.0;101800;;;;
2023/02/21 07:59:00;;;;;;;1.1;1.1;;;;;;;8.4;100.0;101790;;;;
2023/02/21 08:00:00;;;;;;;1.1;1.1;;;;;;;8.4;100.0;101790;;;;
2023/02/21 08:01:01;;;;;;;1.1;1.1;;;;;;;8.3;100.0;101790;;;;
2023/02/21 08:02:01;;;;;;;1.1;1.1;;;;;;;8.3;100.0;101790;;;;
2023/02/21 08:03:00;;;;;;;1.1;1.1;;;;;;;8.4;100.0;101800;;;;
2023/02/21 08:04:00;;;;;;;1.1;1.1;;;;;;;8.4;100.0;101800;;;;
2023/02/21 08:05:00;;;;;;;1.1;1.1;;;;;;;8.4;100.0;101800;;;;
2023/02/21 08:06:00;;;;;;;1.1;1.1;;;;;;;8.4;100.0;101800;;;;
2023/02/21 08:07:01;;;;;;;1.1;1.1;;;;;;;8.4;100.0;101800;;;;
2023/02/21 08:08:00;;;;;;;1.1;1.1;;;;;;;8.4;100.0;101800;;;;
2023/02/21 08:09:00;;;;;;;1.1;1.1;;;;;;;8.4;100.0;101800;;;;
2023/02/21 08:10:00;;;;;;;1.1;1.1;;;;;;;8.4;100.0;101800;;;;
2023/02/21 08:11:00;;;;;;;1.1;1.1;;;;;;;8.4;100.0;101800;;;;
2023/02/21 08:12:00;;;;;;;1.1;1.1;;;;;;;8.4;100.0;101800;;;;
2023/02/21 08:13:00;;;;;;;1.1;1.1;;;;;;;8.4;100.0;101800;;;;
2023/02/21 08:14:00;;;;;;;1.1;1.1;;;;;;;8.4;100.0;101800;;;;
2023/02/21 08:15:00;;;;;;;1.1;1.1;;;;;;;8.4;100.0;101800;;;;
2023/02/21 08:16:00;;;;;;;1.1;1.1;;;;;;;8.4;100.0;101800;;;;
2023/02/21 08:17:00;;;;;;;1.1;1.1;;;;;;;8.3;100.0;101800;;;;
2023/02/21 08:18:00;;;;;;;1.1;1.1;;;;;;;8.3;100.0;101800;;;;
2023/02/21 08:19:00;;;;;;;1.6;1.6;;;;;;;8.3;100.0;101800;;;;
2023/02/21 08:20:00;;;;;;;1.6;1.6;;;;;;;8.3;100.0;101800;;;;
2023/02/21 08:21:00;;;;;;;1.6;1.6;;;;;;;8.3;100.0;101800;;;;
2023/02/21 08:22:00;;;;;;;1.6;1.6;;;;;;;8.3;100.0;101800;;;;
2023/02/21 08:23:00;;;;;;;1.6;1.6;;;;;;;8.4;100.0;101800;;;;
2023/02/21 08:24:00;;;;;;;1.6;1.6;;;;;;;8.4;100.0;101800;;;;
2023/02/21 08:25:00;;;;;;;1.6;1.6;;;;;;;8.4;100.0;101800;;;;
2023/02/21 08:26:01;;;;;;;1.6;1.6;;;;;;;8.4;100.0;101800;;;;
2023/02/21 08:27:00;;;;;;;1.6;1.6;;;;;;;8.3;100.0;101800;;;;
2023/02/21 08:28:00;;;;;;;1.6;1.6;;;;;;;8.3;100.0;101800;;;;
2023/02/21 08:29:00;;;;;;;1.6;1.6;;;;;;;8.3;100.0;101800;;;;
2023/02/21 08:30:00;;;;;;;1.6;1.6;;;;;;;8.3;100.0;101800;;;;
2023/02/21 08:31:00;;;;;;;1.6;1.6;;;;;;;8.3;100.0;101800;;;;
2023/02/21 08:32:00;;;;;;;1.6;1.6;;;;;;;8.3;100.0;101800;;;;
2023/02/21 08:33:00;;;;;;;1.6;1.6;;;;;;;8.3;100.0;101800;;;;
2023/02/21 08:34:00;;;;;;;1.6;1.6;;;;;;;8.3;100.0;101800;;;;
2023/02/21 08:35:02;;;;;;;1.6;1.6;;;;;;;8.3;100.0;101800;;;;
2023/02/21 08:36:00;;;;;;;1.6;1.6;;;;;;;8.3;100.0;101800;;;;
2023/02/21 08:37:00;;;;;;;1.6;1.6;;;;;;;8.3;100.0;101800;;;;
2023/02/21 08:38:02;;;;;;;1.6;1.6;;;;;;;8.3;100.0;101800;;;;
2023/02/21 08:39:00;;;;;;;1.4;1.4;;;;;;;8.3;100.0;101800;;;;
2023/02/21 08:40:01;;;;;;;1.4;1.4;;;;;;;8.3;100.0;101800;;;;
2023/02/21 08:41:01;;;;;;;1.4;1.4;;;;;;;8.3;100.0;101810;;;;
2023/02/21 08:42:00;;;;;;;1.4;1.4;;;;;;;8.3;100.0;101810;;;;
2023/02/21 08:43:00;;;;;;;1.4;1.4;;;;;;;8.4;100.0;101810;;;;
2023/02/21 08:44:00;;;;;;;1.4;1.4;;;;;;;8.4;100.0;101810;;;;